createdAt,value
2024-03-31T00:00:35.500Z,15.37
2024-03-31T00:03:25.249Z,15.33
2024-03-31T00:05:58.602Z,15.28
2024-03-31T00:08:28.349Z,15.23
2024-03-31T00:11:02.406Z,15.16
2024-03-31T00:13:31.977Z,15.10
2024-03-31T00:16:01.607Z,15.06
2024-03-31T00:18:31.222Z,15.03
2024-03-31T00:21:01.177Z,14.99
2024-03-31T00:23:30.806Z,14.95
2024-03-31T00:26:01.501Z,14.91
2024-03-31T00:28:31.108Z,14.88
2024-03-31T00:31:01.602Z,14.86
2024-03-31T00:33:31.050Z,14.81
2024-03-31T00:36:00.712Z,14.73
2024-03-31T00:38:30.431Z,14.70
2024-03-31T00:41:00.190Z,14.67
2024-03-31T00:43:29.888Z,14.63
2024-03-31T00:45:59.550Z,14.59
2024-03-31T00:48:29.268Z,14.54
2024-03-31T00:50:58.820Z,14.49
2024-03-31T00:53:29.255Z,14.43
2024-03-31T00:56:02.016Z,14.36
2024-03-31T00:58:31.790Z,14.29
2024-03-31T01:01:01.510Z,14.26
2024-03-31T01:03:32.565Z,14.22
2024-03-31T01:06:22.928Z,14.20
2024-03-31T01:08:54.252Z,14.16
2024-03-31T01:11:25.138Z,14.13
2024-03-31T01:13:56.884Z,14.10
2024-03-31T01:16:27.734Z,14.06
2024-03-31T01:18:57.349Z,14.00
2024-03-31T01:21:29.318Z,13.93
2024-03-31T01:24:01.153Z,13.86
2024-03-31T01:26:31.640Z,13.84
2024-03-31T01:29:01.249Z,13.81
2024-03-31T01:31:31.338Z,13.78
2024-03-31T01:34:01.493Z,13.75
2024-03-31T01:36:30.945Z,13.72
2024-03-31T01:39:05.369Z,13.68
2024-03-31T01:41:37.529Z,13.65
2024-03-31T01:44:07.400Z,13.60
2024-03-31T01:46:36.929Z,13.58
2024-03-31T01:49:06.487Z,13.56
2024-03-31T01:51:36.543Z,13.55
2024-03-31T01:54:06.929Z,13.55
2024-03-31T01:56:38.637Z,13.54
2024-03-31T01:59:08.349Z,13.53
2024-03-31T02:01:37.936Z,13.52
2024-03-31T02:04:07.597Z,13.51
2024-03-31T02:06:37.124Z,13.49
2024-03-31T02:09:06.565Z,13.45
2024-03-31T02:11:36.167Z,13.43
2024-03-31T02:14:05.751Z,13.40
2024-03-31T02:16:38.439Z,13.35
2024-03-31T02:19:07.890Z,13.28
2024-03-31T02:21:37.550Z,13.19
2024-03-31T02:24:07.600Z,13.13
2024-03-31T02:26:37.172Z,13.06
2024-03-31T02:29:06.615Z,13.01
2024-03-31T02:31:36.165Z,12.95
2024-03-31T02:34:06.779Z,12.91
2024-03-31T02:36:37.091Z,12.90
2024-03-31T02:39:07.841Z,12.88
2024-03-31T02:41:37.811Z,12.87
2024-03-31T02:44:07.266Z,12.86
2024-03-31T02:46:36.888Z,12.85
2024-03-31T02:49:07.258Z,12.83
2024-03-31T02:51:37.338Z,12.83
2024-03-31T02:54:07.237Z,12.82
2024-03-31T02:56:37.674Z,12.80
2024-03-31T02:59:07.464Z,12.78
2024-03-31T03:01:37.342Z,12.78
2024-03-31T03:04:06.934Z,12.79
2024-03-31T03:06:36.549Z,12.79
2024-03-31T03:09:07.493Z,12.77
2024-03-31T03:11:37.125Z,12.76
2024-03-31T03:14:06.591Z,12.76
2024-03-31T03:16:36.250Z,12.74
2024-03-31T03:19:07.236Z,12.73
2024-03-31T03:21:36.962Z,12.72
2024-03-31T03:24:07.502Z,12.72
2024-03-31T03:26:38.222Z,12.72
2024-03-31T03:29:09.044Z,12.72
2024-03-31T03:31:38.555Z,12.73
2024-03-31T03:34:09.846Z,12.72
2024-03-31T03:36:39.551Z,12.72
2024-03-31T03:39:09.158Z,12.72
2024-03-31T03:41:39.135Z,12.71
2024-03-31T03:44:08.748Z,12.70
2024-03-31T03:46:38.634Z,12.67
2024-03-31T03:49:08.366Z,12.66
2024-03-31T03:51:40.083Z,12.65
2024-03-31T03:54:09.727Z,12.64
2024-03-31T03:56:42.349Z,12.62
2024-03-31T03:59:14.093Z,12.60
2024-03-31T04:01:43.966Z,12.58
2024-03-31T04:04:13.594Z,12.56
2024-03-31T04:06:44.942Z,12.54
2024-03-31T04:09:14.801Z,12.55
2024-03-31T04:11:44.297Z,12.55
2024-03-31T04:14:13.876Z,12.56
2024-03-31T04:16:43.575Z,12.57
2024-03-31T04:19:13.086Z,12.60
2024-03-31T04:21:42.775Z,12.63
2024-03-31T04:24:12.342Z,12.66
2024-03-31T04:26:41.918Z,12.69
2024-03-31T04:29:11.421Z,12.73
2024-03-31T04:31:58.310Z,12.76
2024-03-31T04:34:31.842Z,12.80
2024-03-31T04:37:02.448Z,12.83
2024-03-31T04:39:32.049Z,12.87
2024-03-31T04:42:01.754Z,12.91
2024-03-31T04:44:31.335Z,12.95
2024-03-31T04:47:01.654Z,13.02
2024-03-31T04:49:31.647Z,13.09
2024-03-31T04:52:02.174Z,13.17
2024-03-31T04:54:33.449Z,13.25
2024-03-31T04:57:03.366Z,13.34
2024-03-31T04:59:33.080Z,13.42
2024-03-31T05:02:02.719Z,13.51
2024-03-31T05:04:33.968Z,13.63
2024-03-31T05:07:03.507Z,13.75
2024-03-31T05:09:35.865Z,13.87
2024-03-31T05:12:05.743Z,13.99
2024-03-31T05:14:35.514Z,14.10
2024-03-31T05:17:05.826Z,14.23
2024-03-31T05:19:35.630Z,14.39
2024-03-31T05:22:06.833Z,14.55
2024-03-31T05:24:37.641Z,14.71
2024-03-31T05:27:07.517Z,14.89
2024-03-31T05:29:37.014Z,15.06
2024-03-31T05:32:09.154Z,15.22
2024-03-31T05:34:49.129Z,15.41
2024-03-31T05:37:18.938Z,15.59
2024-03-31T05:39:48.630Z,15.76
2024-03-31T05:42:19.780Z,15.91
2024-03-31T05:44:50.798Z,16.09
2024-03-31T05:47:21.568Z,16.25
2024-03-31T05:49:51.793Z,16.43
2024-03-31T05:52:23.906Z,16.61
2024-03-31T05:54:53.863Z,16.80
2024-03-31T05:57:23.801Z,17.00
2024-03-31T05:59:55.452Z,17.16
2024-03-31T06:02:25.566Z,17.30
2024-03-31T06:04:59.067Z,17.45
2024-03-31T06:07:31.086Z,17.67
2024-03-31T06:10:01.398Z,17.83
2024-03-31T06:12:32.636Z,17.96
2024-03-31T06:15:04.479Z,18.13
2024-03-31T06:17:36.404Z,18.30
2024-03-31T06:20:10.227Z,18.53
2024-03-31T06:22:43.673Z,18.78
2024-03-31T06:25:13.782Z,18.94
2024-03-31T06:27:43.586Z,19.07
2024-03-31T06:30:13.388Z,19.21
2024-03-31T06:32:44.565Z,19.37
2024-03-31T06:35:14.466Z,19.56
2024-03-31T06:37:44.104Z,19.65
2024-03-31T06:40:14.206Z,19.69
2024-03-31T06:42:43.842Z,19.70
2024-03-31T06:45:17.210Z,19.82
2024-03-31T06:47:47.027Z,19.98
2024-03-31T06:50:17.195Z,20.18
2024-03-31T06:52:46.854Z,20.36
2024-03-31T06:55:17.273Z,20.54
2024-03-31T06:57:47.460Z,20.74
2024-03-31T07:00:18.308Z,20.95
2024-03-31T07:02:51.332Z,21.14
2024-03-31T07:05:22.658Z,21.27
2024-03-31T07:07:53.297Z,21.44
2024-03-31T07:10:25.210Z,21.69
2024-03-31T07:12:57.384Z,21.93
2024-03-31T07:15:27.440Z,22.16
2024-03-31T07:18:11.377Z,22.39
2024-03-31T07:20:42.008Z,22.66
2024-03-31T07:23:12.249Z,22.90
2024-03-31T07:25:42.417Z,22.88
2024-03-31T07:28:15.887Z,23.04
2024-03-31T07:30:47.141Z,23.23
2024-03-31T07:33:18.085Z,23.41
2024-03-31T07:35:49.664Z,23.54
2024-03-31T07:38:22.510Z,23.60
2024-03-31T07:40:52.873Z,23.70
2024-03-31T07:43:25.386Z,23.86
2024-03-31T07:45:56.430Z,24.03
2024-03-31T07:48:26.789Z,24.18
2024-03-31T07:50:56.466Z,24.27
2024-03-31T07:53:27.977Z,24.38
2024-03-31T07:56:10.823Z,24.54
2024-03-31T07:58:41.441Z,24.72
2024-03-31T08:01:12.993Z,24.91
2024-03-31T08:03:44.794Z,25.08
2024-03-31T08:06:15.029Z,25.17
2024-03-31T08:09:36.993Z,25.23
2024-03-31T08:12:11.058Z,25.32
2024-03-31T08:14:41.971Z,25.38
2024-03-31T08:17:11.801Z,25.43
2024-03-31T08:19:41.289Z,25.45
2024-03-31T08:22:12.465Z,25.52
2024-03-31T08:24:42.649Z,25.54
2024-03-31T08:27:14.961Z,25.62
2024-03-31T08:29:44.625Z,25.76
2024-03-31T08:32:15.058Z,25.98
2024-03-31T08:34:47.899Z,26.28
2024-03-31T08:37:23.703Z,26.53
2024-03-31T08:39:53.316Z,26.66
2024-03-31T08:42:44.865Z,26.71
2024-03-31T08:45:14.953Z,26.89
2024-03-31T08:47:46.059Z,27.06
2024-03-31T08:50:15.699Z,27.15
2024-03-31T08:52:45.200Z,27.22
2024-03-31T08:55:15.175Z,27.34
2024-03-31T08:57:46.017Z,27.47
2024-03-31T09:00:55.996Z,27.52
2024-03-31T09:03:28.629Z,27.62
2024-03-31T09:06:00.185Z,27.80
2024-03-31T09:08:39.866Z,27.96
2024-03-31T09:11:11.736Z,28.11
2024-03-31T09:13:43.959Z,28.27
2024-03-31T09:16:13.890Z,28.48
2024-03-31T09:18:45.598Z,28.74
2024-03-31T09:21:15.179Z,28.94
2024-03-31T09:23:44.926Z,29.05
2024-03-31T09:26:15.952Z,29.22
2024-03-31T09:28:46.045Z,29.33
2024-03-31T09:31:22.519Z,29.47
2024-03-31T09:33:53.497Z,29.58
2024-03-31T09:36:23.449Z,29.89
2024-03-31T09:38:55.622Z,30.14
2024-03-31T09:41:39.866Z,30.42
2024-03-31T09:44:09.435Z,30.78
2024-03-31T09:46:39.187Z,31.02
2024-03-31T09:49:15.081Z,31.06
2024-03-31T09:51:51.099Z,31.36
2024-03-31T09:54:35.562Z,31.79
2024-03-31T09:57:13.831Z,31.89
2024-03-31T09:59:58.986Z,32.18
2024-03-31T10:02:34.158Z,32.43
2024-03-31T10:05:45.521Z,32.72
2024-03-31T10:08:35.306Z,32.99
2024-03-31T10:11:06.676Z,33.05
2024-03-31T10:13:38.614Z,32.92
2024-03-31T10:16:10.802Z,33.39
2024-03-31T10:18:41.927Z,33.83
2024-03-31T10:21:13.251Z,34.01
2024-03-31T10:23:48.088Z,34.15
2024-03-31T10:26:18.792Z,34.35
2024-03-31T10:28:51.082Z,33.98
2024-03-31T10:31:21.905Z,33.98
2024-03-31T10:33:51.835Z,33.77
2024-03-31T10:36:22.713Z,33.83
2024-03-31T10:38:52.335Z,33.66
2024-03-31T10:41:22.898Z,33.42
2024-03-31T10:43:57.773Z,33.72
2024-03-31T10:46:28.034Z,33.95
2024-03-31T10:48:58.561Z,33.97
2024-03-31T10:51:29.245Z,33.88
2024-03-31T10:54:20.768Z,33.76
2024-03-31T10:57:00.218Z,33.80
2024-03-31T10:59:32.304Z,33.59
2024-03-31T11:02:26.343Z,33.70
2024-03-31T11:05:17.915Z,33.79
2024-03-31T11:08:03.087Z,33.88
2024-03-31T11:11:14.193Z,34.13
2024-03-31T11:14:19.192Z,34.36
2024-03-31T11:16:50.695Z,34.08
2024-03-31T11:19:23.427Z,34.07
2024-03-31T11:22:07.421Z,34.05
2024-03-31T11:24:39.464Z,34.42
2024-03-31T11:27:10.778Z,34.77
2024-03-31T11:29:43.304Z,34.81
2024-03-31T11:32:34.858Z,34.91
2024-03-31T11:35:43.406Z,35.17
2024-03-31T11:38:24.638Z,35.49
2024-03-31T11:40:55.024Z,35.09
2024-03-31T11:43:46.813Z,34.86
2024-03-31T11:46:23.290Z,34.25
2024-03-31T11:49:00.733Z,33.83
2024-03-31T11:51:39.375Z,33.60
2024-03-31T11:54:11.256Z,33.95
2024-03-31T11:56:43.664Z,34.32
2024-03-31T11:59:22.003Z,34.54
2024-03-31T12:02:03.123Z,34.08
2024-03-31T12:04:38.053Z,34.51
2024-03-31T12:07:08.913Z,34.34
2024-03-31T12:09:43.985Z,34.20
2024-03-31T12:12:37.637Z,34.75
2024-03-31T12:15:16.050Z,34.67
2024-03-31T12:18:03.444Z,34.63
2024-03-31T12:20:38.205Z,34.56
2024-03-31T12:23:10.426Z,34.81
2024-03-31T12:25:44.832Z,35.23
2024-03-31T12:28:32.938Z,35.32
2024-03-31T12:31:21.762Z,35.61
2024-03-31T12:35:25.856Z,35.98
2024-03-31T12:46:40.457Z,36.38
2024-03-31T12:49:56.637Z,36.17
2024-03-31T12:52:48.198Z,36.17
2024-03-31T12:55:29.318Z,36.23
2024-03-31T12:58:04.205Z,36.48
2024-03-31T13:00:44.859Z,36.47
2024-03-31T13:03:56.897Z,35.59
2024-03-31T13:06:44.019Z,36.05
2024-03-31T13:09:24.821Z,35.77
2024-03-31T13:11:55.781Z,36.01
2024-03-31T13:14:28.077Z,35.92
2024-03-31T13:17:01.378Z,36.27
2024-03-31T13:19:32.365Z,36.24
2024-03-31T13:22:06.144Z,36.17
2024-03-31T13:24:40.585Z,36.21
2024-03-31T13:27:12.989Z,36.33
2024-03-31T13:29:46.954Z,36.47
2024-03-31T13:32:17.775Z,36.38
2024-03-31T13:34:47.290Z,36.54
2024-03-31T13:37:16.918Z,36.61
2024-03-31T13:39:46.685Z,36.58
2024-03-31T13:42:16.586Z,36.70
2024-03-31T13:44:46.569Z,36.75
2024-03-31T13:47:17.445Z,36.84
2024-03-31T13:49:47.472Z,37.05
2024-03-31T13:52:17.911Z,37.16
2024-03-31T13:54:48.625Z,37.24
2024-03-31T13:57:18.334Z,37.14
2024-03-31T13:59:47.969Z,36.95
2024-03-31T14:02:18.446Z,36.69
2024-03-31T14:04:48.368Z,36.62
2024-03-31T14:07:18.931Z,36.62
2024-03-31T14:09:48.523Z,36.46
2024-03-31T14:12:20.248Z,36.35
2024-03-31T14:14:50.920Z,36.32
2024-03-31T14:17:20.932Z,36.20
2024-03-31T14:19:52.711Z,36.22
2024-03-31T14:22:24.455Z,36.20
2024-03-31T14:24:54.177Z,36.08
2024-03-31T14:27:23.725Z,35.86
2024-03-31T14:29:53.452Z,35.74
2024-03-31T14:32:22.989Z,35.56
2024-03-31T14:34:52.740Z,35.37
2024-03-31T14:37:22.283Z,35.06
2024-03-31T14:39:52.227Z,34.70
2024-03-31T14:42:24.670Z,34.40
2024-03-31T14:44:54.969Z,34.16
2024-03-31T14:47:28.558Z,33.89
2024-03-31T14:49:58.382Z,33.71
2024-03-31T14:52:28.104Z,33.41
2024-03-31T14:54:57.780Z,33.06
2024-03-31T14:57:29.278Z,32.83
2024-03-31T15:00:06.523Z,32.62
2024-03-31T15:03:02.681Z,32.42
2024-03-31T15:05:32.730Z,32.23
2024-03-31T15:08:14.231Z,32.03
2024-03-31T15:10:54.670Z,31.75
2024-03-31T15:13:26.976Z,31.55
2024-03-31T15:16:10.382Z,31.36
2024-03-31T15:18:53.576Z,31.15
2024-03-31T15:22:10.877Z,30.95
2024-03-31T15:24:46.993Z,30.75
2024-03-31T15:27:45.382Z,30.60
2024-03-31T15:30:16.386Z,30.42
2024-03-31T15:32:47.316Z,30.24
2024-03-31T15:35:19.267Z,30.09
2024-03-31T15:37:50.900Z,29.93
2024-03-31T15:40:26.545Z,29.80
2024-03-31T15:42:57.250Z,29.67
2024-03-31T15:45:28.445Z,29.56
2024-03-31T15:47:58.187Z,29.46
2024-03-31T15:50:29.037Z,29.35
2024-03-31T15:52:58.505Z,29.27
2024-03-31T15:55:28.195Z,29.18
2024-03-31T15:57:57.595Z,29.10
2024-03-31T16:00:27.812Z,29.02
2024-03-31T16:02:57.381Z,28.94
2024-03-31T16:05:28.067Z,28.88
2024-03-31T16:07:57.437Z,28.79
2024-03-31T16:10:27.102Z,28.70
2024-03-31T16:12:56.998Z,28.63
2024-03-31T16:15:27.188Z,28.56
2024-03-31T16:17:56.869Z,28.49
2024-03-31T16:20:26.690Z,28.40
2024-03-31T16:22:56.284Z,28.30
2024-03-31T16:25:25.938Z,28.19
2024-03-31T16:27:55.540Z,28.06
2024-03-31T16:30:25.212Z,27.93
2024-03-31T16:32:54.808Z,27.81
2024-03-31T16:35:24.365Z,27.70
2024-03-31T16:37:54.530Z,27.58
2024-03-31T16:40:24.261Z,27.45
2024-03-31T16:42:55.841Z,27.31
2024-03-31T16:45:25.512Z,27.14
2024-03-31T16:47:55.171Z,26.96
2024-03-31T16:50:26.313Z,26.80
2024-03-31T16:52:55.852Z,26.66
2024-03-31T16:55:25.397Z,26.43
2024-03-31T16:57:55.158Z,26.20
2024-03-31T17:00:25.218Z,26.05
2024-03-31T17:02:54.634Z,25.92
2024-03-31T17:05:24.148Z,25.76
2024-03-31T17:07:54.750Z,25.59
2024-03-31T17:10:24.407Z,25.43
2024-03-31T17:12:53.852Z,25.31
2024-03-31T17:15:23.349Z,25.21
2024-03-31T17:17:53.135Z,25.10
2024-03-31T17:20:22.858Z,24.99
2024-03-31T17:22:52.297Z,24.88
2024-03-31T17:25:21.879Z,24.73
2024-03-31T17:27:51.934Z,24.62
2024-03-31T17:30:21.363Z,24.52
2024-03-31T17:32:50.950Z,24.42
2024-03-31T17:35:20.560Z,24.35
2024-03-31T17:37:50.110Z,24.25
2024-03-31T17:40:20.416Z,24.16
2024-03-31T17:42:49.846Z,24.08
2024-03-31T17:45:22.719Z,24.00
2024-03-31T17:47:52.318Z,23.93
2024-03-31T17:50:21.771Z,23.87
2024-03-31T17:52:51.131Z,23.82
2024-03-31T17:55:20.887Z,23.76
2024-03-31T17:57:50.826Z,23.70
2024-03-31T18:00:22.793Z,23.66
2024-03-31T18:02:52.287Z,23.59
2024-03-31T18:05:21.677Z,23.50
2024-03-31T18:07:51.278Z,23.43
2024-03-31T18:10:20.764Z,23.37
2024-03-31T18:12:50.504Z,23.28
2024-03-31T18:15:22.011Z,23.21
2024-03-31T18:17:51.495Z,23.16
2024-03-31T18:20:22.588Z,23.11
2024-03-31T18:22:52.389Z,23.08
2024-03-31T18:25:21.915Z,23.01
2024-03-31T18:27:51.437Z,22.95
2024-03-31T18:30:21.076Z,22.95
2024-03-31T18:32:51.702Z,22.94
2024-03-31T18:35:21.233Z,22.89
2024-03-31T18:37:50.949Z,22.88
2024-03-31T18:40:21.707Z,22.85
2024-03-31T18:42:51.208Z,22.83
2024-03-31T18:45:20.665Z,22.80
2024-03-31T18:47:51.294Z,22.77
2024-03-31T18:50:21.235Z,22.74
2024-03-31T18:52:50.728Z,22.70
2024-03-31T18:55:20.558Z,22.66
2024-03-31T18:57:50.155Z,22.61
2024-03-31T19:00:20.004Z,22.54
2024-03-31T19:02:56.042Z,22.48
2024-03-31T19:05:25.810Z,22.40
2024-03-31T19:07:55.226Z,22.31
2024-03-31T19:10:25.377Z,22.22
2024-03-31T19:12:55.199Z,22.15
2024-03-31T19:15:24.661Z,22.11
2024-03-31T19:17:54.315Z,22.06
2024-03-31T19:20:23.780Z,22.03
2024-03-31T19:22:53.605Z,22.00
2024-03-31T19:25:23.187Z,21.97
2024-03-31T19:27:54.703Z,21.92
2024-03-31T19:30:24.777Z,21.89
2024-03-31T19:32:53.179Z,21.86
2024-03-31T19:35:22.775Z,21.84
2024-03-31T19:37:55.646Z,21.82
2024-03-31T19:40:25.264Z,21.78
2024-03-31T19:42:54.773Z,21.77
2024-03-31T19:45:24.527Z,21.75
2024-03-31T19:47:54.031Z,21.73
2024-03-31T19:50:23.718Z,21.73
2024-03-31T19:52:55.894Z,21.72
2024-03-31T19:55:25.669Z,21.70
2024-03-31T19:57:58.133Z,21.68
2024-03-31T20:00:29.439Z,21.65
2024-03-31T20:02:59.024Z,21.59
2024-03-31T20:05:29.082Z,21.54
2024-03-31T20:07:59.031Z,21.48
2024-03-31T20:10:28.698Z,21.42
2024-03-31T20:12:59.592Z,21.37
2024-03-31T20:15:29.104Z,21.36
2024-03-31T20:17:58.471Z,21.37
2024-03-31T20:20:27.986Z,21.38
2024-03-31T20:22:57.703Z,21.39
2024-03-31T20:25:27.116Z,21.42
2024-03-31T20:27:56.863Z,21.42
2024-03-31T20:30:26.526Z,21.43
2024-03-31T20:32:56.521Z,21.44
2024-03-31T20:35:26.018Z,21.42
2024-03-31T20:37:56.510Z,21.36
2024-03-31T20:40:27.224Z,21.31
2024-03-31T20:42:56.704Z,21.28
2024-03-31T20:45:26.180Z,21.23
2024-03-31T20:47:55.950Z,21.14
2024-03-31T20:50:25.353Z,21.04
2024-03-31T20:52:56.232Z,20.96
2024-03-31T20:55:25.680Z,20.89
2024-03-31T20:57:55.861Z,20.85
2024-03-31T21:00:25.680Z,20.79
2024-03-31T21:02:55.431Z,20.73
2024-03-31T21:05:24.990Z,20.62
2024-03-31T21:07:54.407Z,20.51
2024-03-31T21:10:24.221Z,20.40
2024-03-31T21:12:53.758Z,20.33
2024-03-31T21:15:23.224Z,20.24
2024-03-31T21:17:56.203Z,20.11
2024-03-31T21:20:25.628Z,19.97
2024-03-31T21:22:57.535Z,19.88
2024-03-31T21:25:27.242Z,19.85
2024-03-31T21:27:56.764Z,19.83
2024-03-31T21:30:27.668Z,19.80
2024-03-31T21:32:57.135Z,19.72
2024-03-31T21:35:33.049Z,19.65
2024-03-31T21:38:02.582Z,19.59
2024-03-31T21:40:32.124Z,19.51
2024-03-31T21:43:01.791Z,19.43
2024-03-31T21:45:31.286Z,19.34
2024-03-31T21:48:00.714Z,19.29
2024-03-31T21:50:30.448Z,19.25
2024-03-31T21:53:00.054Z,19.23
2024-03-31T21:55:29.742Z,19.22
2024-03-31T21:57:59.280Z,19.21
2024-03-31T22:00:29.789Z,19.20
2024-03-31T22:02:59.340Z,19.21
2024-03-31T22:05:28.907Z,19.23
2024-03-31T22:07:58.397Z,19.27
2024-03-31T22:10:27.957Z,19.27
2024-03-31T22:12:59.519Z,19.27
2024-03-31T22:15:29.704Z,19.29
2024-03-31T22:17:59.468Z,19.30
2024-03-31T22:20:30.410Z,19.30
2024-03-31T22:22:59.919Z,19.32
2024-03-31T22:25:30.214Z,19.35
2024-03-31T22:27:59.882Z,19.37
2024-03-31T22:30:29.220Z,19.37
2024-03-31T22:32:58.955Z,19.36
2024-03-31T22:35:28.472Z,19.36
2024-03-31T22:37:58.570Z,19.34
2024-03-31T22:40:28.048Z,19.31
2024-03-31T22:42:57.646Z,19.29
2024-03-31T22:45:27.327Z,19.27
2024-03-31T22:47:57.185Z,19.25
2024-03-31T22:50:26.796Z,19.23
2024-03-31T22:52:56.444Z,19.21
2024-03-31T22:55:26.610Z,19.20
2024-03-31T22:57:57.241Z,19.21
2024-03-31T23:00:26.707Z,19.20
2024-03-31T23:02:56.205Z,19.19
2024-03-31T23:05:25.953Z,19.19
2024-03-31T23:07:55.436Z,19.19
2024-03-31T23:10:25.015Z,19.19
2024-03-31T23:12:54.453Z,19.19
2024-03-31T23:15:25.312Z,19.18
2024-03-31T23:17:54.748Z,19.18
2024-03-31T23:20:25.842Z,19.17
2024-03-31T23:22:56.639Z,19.15
2024-03-31T23:25:26.287Z,19.13
2024-03-31T23:27:55.731Z,19.09
2024-03-31T23:30:26.682Z,19.08
2024-03-31T23:32:58.604Z,19.06
2024-03-31T23:35:28.207Z,19.04
2024-03-31T23:37:58.692Z,19.02
2024-03-31T23:40:28.221Z,19.00
2024-03-31T23:42:57.931Z,18.99
2024-03-31T23:45:32.136Z,18.97
2024-03-31T23:48:01.669Z,18.96
2024-03-31T23:50:31.174Z,18.94
2024-03-31T23:53:00.697Z,18.90
2024-03-31T23:55:30.261Z,18.87
2024-03-31T23:57:59.863Z,18.82
